sensor_id;sensor_type;location;lat;lon;timestamp;P1;durP1;ratioP1;P2;durP2;ratioP2
8419;SDS011;4247;48.550;8.822;2022-10-17T00:00:27;4.50;;;1.13;;
8419;SDS011;4247;48.550;8.822;2022-10-17T00:02:55;1.30;;;1.10;;
8419;SDS011;4247;48.550;8.822;2022-10-17T00:05:22;2.57;;;1.00;;
8419;SDS011;4247;48.550;8.822;2022-10-17T00:07:51;1.07;;;0.97;;
8419;SDS011;4247;48.550;8.822;2022-10-17T00:10:18;1.50;;;0.73;;
8419;SDS011;4247;48.550;8.822;2022-10-17T00:12:45;1.13;;;1.00;;
8419;SDS011;4247;48.550;8.822;2022-10-17T00:15:15;4.87;;;1.00;;
8419;SDS011;4247;48.550;8.822;2022-10-17T00:17:43;6.30;;;1.00;;
8419;SDS011;4247;48.550;8.822;2022-10-17T00:20:10;0.93;;;0.90;;
8419;SDS011;4247;48.550;8.822;2022-10-17T00:22:38;2.50;;;0.83;;
8419;SDS011;4247;48.550;8.822;2022-10-17T00:25:05;0.93;;;0.80;;
8419;SDS011;4247;48.550;8.822;2022-10-17T00:27:33;2.20;;;0.73;;
8419;SDS011;4247;48.550;8.822;2022-10-17T00:30:01;5.30;;;1.10;;
8419;SDS011;4247;48.550;8.822;2022-10-17T00:32:29;1.97;;;0.87;;
8419;SDS011;4247;48.550;8.822;2022-10-17T00:34:56;1.37;;;1.03;;
8419;SDS011;4247;48.550;8.822;2022-10-17T00:37:24;1.30;;;1.20;;
8419;SDS011;4247;48.550;8.822;2022-10-17T00:39:53;0.83;;;0.83;;
8419;SDS011;4247;48.550;8.822;2022-10-17T00:42:20;2.93;;;1.10;;
8419;SDS011;4247;48.550;8.822;2022-10-17T00:45:06;2.20;;;0.80;;
8419;SDS011;4247;48.550;8.822;2022-10-17T00:47:40;5.67;;;1.43;;
8419;SDS011;4247;48.550;8.822;2022-10-17T00:50:19;0.73;;;0.73;;
8419;SDS011;4247;48.550;8.822;2022-10-17T00:52:47;4.27;;;0.83;;
8419;SDS011;4247;48.550;8.822;2022-10-17T00:55:16;1.80;;;0.70;;
8419;SDS011;4247;48.550;8.822;2022-10-17T00:57:46;0.87;;;0.73;;
8419;SDS011;4247;48.550;8.822;2022-10-17T01:00:15;5.77;;;0.80;;
8419;SDS011;4247;48.550;8.822;2022-10-17T01:02:44;0.80;;;0.80;;
8419;SDS011;4247;48.550;8.822;2022-10-17T01:05:11;1.90;;;1.00;;
8419;SDS011;4247;48.550;8.822;2022-10-17T01:07:40;4.50;;;0.97;;
8419;SDS011;4247;48.550;8.822;2022-10-17T01:10:08;1.50;;;0.90;;
8419;SDS011;4247;48.550;8.822;2022-10-17T01:12:44;4.30;;;1.00;;
8419;SDS011;4247;48.550;8.822;2022-10-17T01:15:22;2.27;;;1.37;;
8419;SDS011;4247;48.550;8.822;2022-10-17T01:18:03;1.60;;;0.67;;
8419;SDS011;4247;48.550;8.822;2022-10-17T01:23:44;1.00;;;0.90;;
8419;SDS011;4247;48.550;8.822;2022-10-17T01:26:35;2.63;;;1.17;;
8419;SDS011;4247;48.550;8.822;2022-10-17T01:29:24;2.57;;;1.27;;
8419;SDS011;4247;48.550;8.822;2022-10-17T01:32:00;4.27;;;1.13;;
8419;SDS011;4247;48.550;8.822;2022-10-17T01:34:30;3.43;;;1.20;;
8419;SDS011;4247;48.550;8.822;2022-10-17T01:37:03;2.27;;;1.30;;
8419;SDS011;4247;48.550;8.822;2022-10-17T01:39:36;2.10;;;1.63;;
8419;SDS011;4247;48.550;8.822;2022-10-17T01:42:09;1.97;;;1.50;;
8419;SDS011;4247;48.550;8.822;2022-10-17T01:44:42;2.63;;;1.27;;
8419;SDS011;4247;48.550;8.822;2022-10-17T01:47:17;3.87;;;1.70;;
8419;SDS011;4247;48.550;8.822;2022-10-17T01:49:47;2.80;;;1.30;;
8419;SDS011;4247;48.550;8.822;2022-10-17T01:52:18;3.40;;;1.37;;
8419;SDS011;4247;48.550;8.822;2022-10-17T01:54:49;3.43;;;1.60;;
8419;SDS011;4247;48.550;8.822;2022-10-17T01:57:25;4.30;;;1.17;;
8419;SDS011;4247;48.550;8.822;2022-10-17T01:59:56;1.37;;;1.10;;
8419;SDS011;4247;48.550;8.822;2022-10-17T02:02:24;2.70;;;1.63;;
8419;SDS011;4247;48.550;8.822;2022-10-17T02:04:52;4.67;;;1.20;;
8419;SDS011;4247;48.550;8.822;2022-10-17T02:07:22;1.70;;;1.20;;
8419;SDS011;4247;48.550;8.822;2022-10-17T02:09:50;3.43;;;1.40;;
8419;SDS011;4247;48.550;8.822;2022-10-17T02:12:24;1.93;;;0.93;;
8419;SDS011;4247;48.550;8.822;2022-10-17T02:15:04;5.53;;;1.23;;
8419;SDS011;4247;48.550;8.822;2022-10-17T02:17:51;4.77;;;1.83;;
8419;SDS011;4247;48.550;8.822;2022-10-17T02:20:26;1.30;;;1.20;;
8419;SDS011;4247;48.550;8.822;2022-10-17T02:22:57;1.53;;;1.27;;
8419;SDS011;4247;48.550;8.822;2022-10-17T02:25:30;7.83;;;1.10;;
8419;SDS011;4247;48.550;8.822;2022-10-17T02:28:06;2.30;;;1.00;;
8419;SDS011;4247;48.550;8.822;2022-10-17T02:30:44;1.40;;;1.13;;
8419;SDS011;4247;48.550;8.822;2022-10-17T02:33:19;1.37;;;0.93;;
8419;SDS011;4247;48.550;8.822;2022-10-17T02:35:51;3.27;;;1.67;;
8419;SDS011;4247;48.550;8.822;2022-10-17T02:38:24;1.57;;;1.20;;
8419;SDS011;4247;48.550;8.822;2022-10-17T02:40:54;4.27;;;1.47;;
8419;SDS011;4247;48.550;8.822;2022-10-17T02:43:21;3.03;;;1.40;;
8419;SDS011;4247;48.550;8.822;2022-10-17T02:45:49;3.93;;;1.33;;
8419;SDS011;4247;48.550;8.822;2022-10-17T02:48:21;3.37;;;1.30;;
8419;SDS011;4247;48.550;8.822;2022-10-17T02:50:56;2.00;;;1.10;;
8419;SDS011;4247;48.550;8.822;2022-10-17T02:53:29;2.10;;;1.00;;
8419;SDS011;4247;48.550;8.822;2022-10-17T02:56:01;7.17;;;1.20;;
8419;SDS011;4247;48.550;8.822;2022-10-17T02:58:47;2.60;;;1.10;;
8419;SDS011;4247;48.550;8.822;2022-10-17T03:01:17;1.23;;;1.00;;
8419;SDS011;4247;48.550;8.822;2022-10-17T03:03:47;1.60;;;1.10;;
8419;SDS011;4247;48.550;8.822;2022-10-17T03:06:14;1.47;;;0.90;;
8419;SDS011;4247;48.550;8.822;2022-10-17T03:08:41;2.50;;;1.10;;
8419;SDS011;4247;48.550;8.822;2022-10-17T03:11:08;5.70;;;1.20;;
8419;SDS011;4247;48.550;8.822;2022-10-17T03:13:35;1.07;;;0.90;;
8419;SDS011;4247;48.550;8.822;2022-10-17T03:16:02;2.10;;;0.70;;
8419;SDS011;4247;48.550;8.822;2022-10-17T03:18:30;1.43;;;0.90;;
8419;SDS011;4247;48.550;8.822;2022-10-17T03:20:58;1.53;;;1.27;;
8419;SDS011;4247;48.550;8.822;2022-10-17T03:23:27;3.33;;;1.10;;
8419;SDS011;4247;48.550;8.822;2022-10-17T03:25:53;1.13;;;1.03;;
8419;SDS011;4247;48.550;8.822;2022-10-17T03:28:21;0.93;;;0.80;;
8419;SDS011;4247;48.550;8.822;2022-10-17T03:30:48;1.97;;;1.20;;
8419;SDS011;4247;48.550;8.822;2022-10-17T03:33:15;2.40;;;0.80;;
8419;SDS011;4247;48.550;8.822;2022-10-17T03:35:43;0.70;;;0.70;;
8419;SDS011;4247;48.550;8.822;2022-10-17T03:38:11;1.20;;;0.97;;
8419;SDS011;4247;48.550;8.822;2022-10-17T03:40:38;0.90;;;0.90;;
8419;SDS011;4247;48.550;8.822;2022-10-17T03:43:05;1.27;;;1.00;;
8419;SDS011;4247;48.550;8.822;2022-10-17T03:45:32;5.20;;;0.93;;
8419;SDS011;4247;48.550;8.822;2022-10-17T03:48:00;1.73;;;0.90;;
8419;SDS011;4247;48.550;8.822;2022-10-17T03:50:27;1.17;;;0.93;;
8419;SDS011;4247;48.550;8.822;2022-10-17T03:52:54;2.90;;;0.97;;
8419;SDS011;4247;48.550;8.822;2022-10-17T03:55:22;3.40;;;0.90;;
8419;SDS011;4247;48.550;8.822;2022-10-17T03:57:49;3.43;;;1.10;;
8419;SDS011;4247;48.550;8.822;2022-10-17T04:00:19;0.90;;;0.77;;
8419;SDS011;4247;48.550;8.822;2022-10-17T04:02:46;1.53;;;1.00;;
8419;SDS011;4247;48.550;8.822;2022-10-17T04:05:13;1.77;;;1.30;;
8419;SDS011;4247;48.550;8.822;2022-10-17T04:07:40;1.40;;;1.20;;
8419;SDS011;4247;48.550;8.822;2022-10-17T04:10:07;3.27;;;1.43;;
8419;SDS011;4247;48.550;8.822;2022-10-17T04:12:37;1.97;;;1.10;;
8419;SDS011;4247;48.550;8.822;2022-10-17T04:15:05;1.70;;;1.27;;
8419;SDS011;4247;48.550;8.822;2022-10-17T04:17:32;0.83;;;0.80;;
8419;SDS011;4247;48.550;8.822;2022-10-17T04:19:59;2.83;;;1.57;;
8419;SDS011;4247;48.550;8.822;2022-10-17T04:22:26;2.00;;;1.20;;
8419;SDS011;4247;48.550;8.822;2022-10-17T04:24:53;2.37;;;1.20;;
8419;SDS011;4247;48.550;8.822;2022-10-17T04:27:20;1.23;;;0.80;;
8419;SDS011;4247;48.550;8.822;2022-10-17T04:29:48;1.87;;;1.47;;
8419;SDS011;4247;48.550;8.822;2022-10-17T04:32:15;1.83;;;1.17;;
8419;SDS011;4247;48.550;8.822;2022-10-17T04:34:42;2.10;;;1.20;;
8419;SDS011;4247;48.550;8.822;2022-10-17T04:37:09;6.97;;;1.20;;
8419;SDS011;4247;48.550;8.822;2022-10-17T04:39:36;1.73;;;1.13;;
8419;SDS011;4247;48.550;8.822;2022-10-17T04:42:03;9.33;;;1.37;;
8419;SDS011;4247;48.550;8.822;2022-10-17T04:44:30;1.80;;;1.10;;
8419;SDS011;4247;48.550;8.822;2022-10-17T04:46:59;7.97;;;1.33;;
8419;SDS011;4247;48.550;8.822;2022-10-17T04:49:26;3.37;;;1.30;;
8419;SDS011;4247;48.550;8.822;2022-10-17T04:51:53;5.90;;;1.87;;
8419;SDS011;4247;48.550;8.822;2022-10-17T04:54:20;2.07;;;1.50;;
8419;SDS011;4247;48.550;8.822;2022-10-17T04:56:47;1.53;;;1.27;;
8419;SDS011;4247;48.550;8.822;2022-10-17T04:59:13;1.80;;;1.30;;
8419;SDS011;4247;48.550;8.822;2022-10-17T05:01:40;4.13;;;1.40;;
8419;SDS011;4247;48.550;8.822;2022-10-17T05:04:09;2.00;;;1.37;;
8419;SDS011;4247;48.550;8.822;2022-10-17T05:06:36;2.33;;;1.37;;
8419;SDS011;4247;48.550;8.822;2022-10-17T05:09:03;4.53;;;1.33;;
8419;SDS011;4247;48.550;8.822;2022-10-17T05:11:30;1.30;;;1.20;;
8419;SDS011;4247;48.550;8.822;2022-10-17T05:13:58;2.77;;;1.70;;
8419;SDS011;4247;48.550;8.822;2022-10-17T05:16:27;3.47;;;1.37;;
8419;SDS011;4247;48.550;8.822;2022-10-17T05:18:55;2.73;;;1.43;;
8419;SDS011;4247;48.550;8.822;2022-10-17T05:21:25;2.57;;;1.20;;
8419;SDS011;4247;48.550;8.822;2022-10-17T05:23:53;3.83;;;1.83;;
8419;SDS011;4247;48.550;8.822;2022-10-17T05:26:20;5.23;;;1.37;;
8419;SDS011;4247;48.550;8.822;2022-10-17T05:28:48;2.40;;;1.57;;
8419;SDS011;4247;48.550;8.822;2022-10-17T05:31:16;3.07;;;1.40;;
8419;SDS011;4247;48.550;8.822;2022-10-17T05:33:43;5.03;;;1.50;;
8419;SDS011;4247;48.550;8.822;2022-10-17T05:36:10;3.83;;;1.40;;
8419;SDS011;4247;48.550;8.822;2022-10-17T05:38:38;2.07;;;1.87;;
8419;SDS011;4247;48.550;8.822;2022-10-17T05:41:05;4.50;;;2.50;;
8419;SDS011;4247;48.550;8.822;2022-10-17T05:43:32;6.73;;;2.40;;
8419;SDS011;4247;48.550;8.822;2022-10-17T05:46:03;2.97;;;2.70;;
8419;SDS011;4247;48.550;8.822;2022-10-17T05:48:31;3.33;;;2.00;;
8419;SDS011;4247;48.550;8.822;2022-10-17T05:50:58;2.03;;;1.87;;
8419;SDS011;4247;48.550;8.822;2022-10-17T05:53:29;2.07;;;1.77;;
8419;SDS011;4247;48.550;8.822;2022-10-17T05:55:59;2.00;;;1.80;;
8419;SDS011;4247;48.550;8.822;2022-10-17T05:58:28;6.57;;;1.40;;
8419;SDS011;4247;48.550;8.822;2022-10-17T06:00:56;4.43;;;1.43;;
8419;SDS011;4247;48.550;8.822;2022-10-17T06:03:24;1.43;;;1.20;;
8419;SDS011;4247;48.550;8.822;2022-10-17T06:05:51;2.07;;;1.50;;
8419;SDS011;4247;48.550;8.822;2022-10-17T06:08:27;2.73;;;1.20;;
8419;SDS011;4247;48.550;8.822;2022-10-17T06:10:54;5.17;;;1.00;;
8419;SDS011;4247;48.550;8.822;2022-10-17T06:13:22;1.07;;;1.07;;
8419;SDS011;4247;48.550;8.822;2022-10-17T06:15:49;1.87;;;1.10;;
8419;SDS011;4247;48.550;8.822;2022-10-17T06:18:16;2.13;;;1.93;;
8419;SDS011;4247;48.550;8.822;2022-10-17T06:20:45;6.93;;;1.93;;
8419;SDS011;4247;48.550;8.822;2022-10-17T06:23:12;1.50;;;1.40;;
8419;SDS011;4247;48.550;8.822;2022-10-17T06:25:39;1.30;;;1.20;;
8419;SDS011;4247;48.550;8.822;2022-10-17T06:28:06;1.90;;;1.33;;
8419;SDS011;4247;48.550;8.822;2022-10-17T06:30:37;2.03;;;1.30;;
8419;SDS011;4247;48.550;8.822;2022-10-17T06:33:06;2.00;;;0.90;;
8419;SDS011;4247;48.550;8.822;2022-10-17T06:35:33;1.57;;;0.90;;
8419;SDS011;4247;48.550;8.822;2022-10-17T06:37:59;1.50;;;0.90;;
8419;SDS011;4247;48.550;8.822;2022-10-17T06:40:26;2.40;;;1.00;;
8419;SDS011;4247;48.550;8.822;2022-10-17T06:42:54;1.30;;;1.23;;
8419;SDS011;4247;48.550;8.822;2022-10-17T06:45:22;2.90;;;0.97;;
8419;SDS011;4247;48.550;8.822;2022-10-17T06:47:50;1.27;;;1.10;;
8419;SDS011;4247;48.550;8.822;2022-10-17T06:50:17;2.80;;;0.90;;
8419;SDS011;4247;48.550;8.822;2022-10-17T06:52:44;5.30;;;1.10;;
8419;SDS011;4247;48.550;8.822;2022-10-17T06:55:11;1.70;;;1.20;;
8419;SDS011;4247;48.550;8.822;2022-10-17T06:57:38;2.70;;;1.50;;
8419;SDS011;4247;48.550;8.822;2022-10-17T07:00:05;1.90;;;1.23;;
8419;SDS011;4247;48.550;8.822;2022-10-17T07:02:33;3.63;;;1.57;;
8419;SDS011;4247;48.550;8.822;2022-10-17T07:05:01;1.73;;;1.40;;
8419;SDS011;4247;48.550;8.822;2022-10-17T07:07:29;1.83;;;1.57;;
8419;SDS011;4247;48.550;8.822;2022-10-17T07:09:56;4.77;;;1.57;;
8419;SDS011;4247;48.550;8.822;2022-10-17T07:12:24;4.60;;;1.47;;
8419;SDS011;4247;48.550;8.822;2022-10-17T07:14:51;6.17;;;1.83;;
8419;SDS011;4247;48.550;8.822;2022-10-17T07:17:18;4.47;;;2.47;;
8419;SDS011;4247;48.550;8.822;2022-10-17T07:19:44;7.13;;;1.97;;
8419;SDS011;4247;48.550;8.822;2022-10-17T07:22:13;6.00;;;2.43;;
8419;SDS011;4247;48.550;8.822;2022-10-17T07:24:40;6.93;;;2.50;;
8419;SDS011;4247;48.550;8.822;2022-10-17T07:27:06;4.07;;;2.27;;
8419;SDS011;4247;48.550;8.822;2022-10-17T07:29:33;6.13;;;2.77;;
8419;SDS011;4247;48.550;8.822;2022-10-17T07:32:00;7.63;;;3.00;;
8419;SDS011;4247;48.550;8.822;2022-10-17T07:34:28;7.20;;;1.93;;
8419;SDS011;4247;48.550;8.822;2022-10-17T07:36:55;10.53;;;1.97;;
8419;SDS011;4247;48.550;8.822;2022-10-17T07:39:23;3.93;;;2.00;;
8419;SDS011;4247;48.550;8.822;2022-10-17T07:41:50;2.77;;;1.60;;
8419;SDS011;4247;48.550;8.822;2022-10-17T07:44:17;2.03;;;1.40;;
8419;SDS011;4247;48.550;8.822;2022-10-17T07:46:45;2.17;;;1.40;;
8419;SDS011;4247;48.550;8.822;2022-10-17T07:49:12;1.97;;;1.50;;
8419;SDS011;4247;48.550;8.822;2022-10-17T07:51:39;2.70;;;1.50;;
8419;SDS011;4247;48.550;8.822;2022-10-17T07:54:05;2.07;;;1.20;;
8419;SDS011;4247;48.550;8.822;2022-10-17T07:56:34;1.80;;;1.60;;
8419;SDS011;4247;48.550;8.822;2022-10-17T07:59:02;2.27;;;1.67;;
8419;SDS011;4247;48.550;8.822;2022-10-17T08:01:29;3.80;;;1.43;;
8419;SDS011;4247;48.550;8.822;2022-10-17T08:03:56;4.30;;;1.20;;
8419;SDS011;4247;48.550;8.822;2022-10-17T08:06:22;3.20;;;1.40;;
8419;SDS011;4247;48.550;8.822;2022-10-17T08:08:49;5.17;;;1.53;;
8419;SDS011;4247;48.550;8.822;2022-10-17T08:11:16;8.03;;;1.37;;
8419;SDS011;4247;48.550;8.822;2022-10-17T08:13:44;2.07;;;1.40;;
8419;SDS011;4247;48.550;8.822;2022-10-17T08:16:11;2.03;;;1.50;;
8419;SDS011;4247;48.550;8.822;2022-10-17T08:18:44;3.60;;;1.50;;
8419;SDS011;4247;48.550;8.822;2022-10-17T08:21:11;1.40;;;1.30;;
8419;SDS011;4247;48.550;8.822;2022-10-17T08:23:38;1.40;;;1.20;;
8419;SDS011;4247;48.550;8.822;2022-10-17T08:26:05;3.10;;;1.30;;
8419;SDS011;4247;48.550;8.822;2022-10-17T08:28:35;1.23;;;1.10;;
8419;SDS011;4247;48.550;8.822;2022-10-17T08:31:05;1.87;;;1.30;;
8419;SDS011;4247;48.550;8.822;2022-10-17T08:33:33;2.60;;;1.13;;
8419;SDS011;4247;48.550;8.822;2022-10-17T08:36:00;2.10;;;1.10;;
8419;SDS011;4247;48.550;8.822;2022-10-17T08:38:28;1.10;;;1.00;;
8419;SDS011;4247;48.550;8.822;2022-10-17T08:40:55;0.80;;;0.80;;
8419;SDS011;4247;48.550;8.822;2022-10-17T08:43:27;3.07;;;0.90;;
8419;SDS011;4247;48.550;8.822;2022-10-17T08:46:01;3.03;;;1.00;;
8419;SDS011;4247;48.550;8.822;2022-10-17T08:48:35;4.60;;;1.20;;
8419;SDS011;4247;48.550;8.822;2022-10-17T08:51:08;1.80;;;0.90;;
8419;SDS011;4247;48.550;8.822;2022-10-17T08:53:40;1.03;;;0.90;;
8419;SDS011;4247;48.550;8.822;2022-10-17T08:56:15;1.20;;;0.87;;
8419;SDS011;4247;48.550;8.822;2022-10-17T08:58:49;1.70;;;0.77;;
8419;SDS011;4247;48.550;8.822;2022-10-17T09:01:27;4.00;;;0.80;;
8419;SDS011;4247;48.550;8.822;2022-10-17T09:04:11;1.23;;;1.00;;
8419;SDS011;4247;48.550;8.822;2022-10-17T09:06:54;3.70;;;1.50;;
8419;SDS011;4247;48.550;8.822;2022-10-17T09:09:29;0.70;;;0.70;;
8419;SDS011;4247;48.550;8.822;2022-10-17T09:12:07;1.43;;;1.00;;
8419;SDS011;4247;48.550;8.822;2022-10-17T09:14:47;5.00;;;0.80;;
8419;SDS011;4247;48.550;8.822;2022-10-17T09:17:33;0.70;;;0.70;;
8419;SDS011;4247;48.550;8.822;2022-10-17T09:20:09;0.97;;;0.87;;
8419;SDS011;4247;48.550;8.822;2022-10-17T09:22:42;2.73;;;1.00;;
8419;SDS011;4247;48.550;8.822;2022-10-17T09:25:15;1.47;;;0.93;;
8419;SDS011;4247;48.550;8.822;2022-10-17T09:27:45;1.20;;;0.93;;
8419;SDS011;4247;48.550;8.822;2022-10-17T09:30:19;1.80;;;1.00;;
8419;SDS011;4247;48.550;8.822;2022-10-17T09:32:53;2.80;;;0.70;;
8419;SDS011;4247;48.550;8.822;2022-10-17T09:35:21;1.60;;;0.80;;
8419;SDS011;4247;48.550;8.822;2022-10-17T09:37:50;2.13;;;0.80;;
8419;SDS011;4247;48.550;8.822;2022-10-17T09:40:20;2.10;;;0.70;;
8419;SDS011;4247;48.550;8.822;2022-10-17T09:42:50;0.80;;;0.80;;
8419;SDS011;4247;48.550;8.822;2022-10-17T09:45:18;1.33;;;1.00;;
8419;SDS011;4247;48.550;8.822;2022-10-17T09:47:52;1.47;;;0.80;;
8419;SDS011;4247;48.550;8.822;2022-10-17T09:50:28;1.63;;;0.80;;
8419;SDS011;4247;48.550;8.822;2022-10-17T09:52:57;4.23;;;1.10;;
8419;SDS011;4247;48.550;8.822;2022-10-17T09:55:30;1.63;;;1.00;;
8419;SDS011;4247;48.550;8.822;2022-10-17T09:58:10;3.07;;;0.90;;
8419;SDS011;4247;48.550;8.822;2022-10-17T10:00:38;1.33;;;0.93;;
8419;SDS011;4247;48.550;8.822;2022-10-17T10:06:00;0.90;;;0.90;;
8419;SDS011;4247;48.550;8.822;2022-10-17T10:08:35;2.00;;;0.90;;
8419;SDS011;4247;48.550;8.822;2022-10-17T10:11:12;2.80;;;1.10;;
8419;SDS011;4247;48.550;8.822;2022-10-17T10:13:40;1.30;;;1.20;;
8419;SDS011;4247;48.550;8.822;2022-10-17T10:16:13;0.70;;;0.70;;
8419;SDS011;4247;48.550;8.822;2022-10-17T10:18:43;1.93;;;0.80;;
8419;SDS011;4247;48.550;8.822;2022-10-17T10:21:12;2.77;;;0.80;;
8419;SDS011;4247;48.550;8.822;2022-10-17T10:23:40;1.20;;;0.77;;
8419;SDS011;4247;48.550;8.822;2022-10-17T10:26:19;2.23;;;0.80;;
8419;SDS011;4247;48.550;8.822;2022-10-17T10:28:50;0.80;;;0.70;;
8419;SDS011;4247;48.550;8.822;2022-10-17T10:31:26;0.60;;;0.60;;
8419;SDS011;4247;48.550;8.822;2022-10-17T10:33:55;0.93;;;0.73;;
8419;SDS011;4247;48.550;8.822;2022-10-17T10:36:40;3.63;;;0.70;;
8419;SDS011;4247;48.550;8.822;2022-10-17T10:39:24;1.77;;;0.77;;
8419;SDS011;4247;48.550;8.822;2022-10-17T10:41:58;1.43;;;0.90;;
8419;SDS011;4247;48.550;8.822;2022-10-17T10:44:28;3.43;;;0.90;;
8419;SDS011;4247;48.550;8.822;2022-10-17T10:47:07;1.10;;;0.80;;
8419;SDS011;4247;48.550;8.822;2022-10-17T10:49:42;1.00;;;0.90;;
8419;SDS011;4247;48.550;8.822;2022-10-17T10:52:13;5.30;;;1.43;;
8419;SDS011;4247;48.550;8.822;2022-10-17T10:54:49;5.63;;;2.03;;
8419;SDS011;4247;48.550;8.822;2022-10-17T10:57:22;2.30;;;1.57;;
8419;SDS011;4247;48.550;8.822;2022-10-17T10:59:55;3.07;;;0.93;;
8419;SDS011;4247;48.550;8.822;2022-10-17T11:02:29;1.93;;;0.80;;
8419;SDS011;4247;48.550;8.822;2022-10-17T11:05:02;2.43;;;0.73;;
8419;SDS011;4247;48.550;8.822;2022-10-17T11:07:41;1.10;;;0.80;;
8419;SDS011;4247;48.550;8.822;2022-10-17T11:10:13;4.70;;;1.03;;
8419;SDS011;4247;48.550;8.822;2022-10-17T11:12:47;1.00;;;0.70;;
8419;SDS011;4247;48.550;8.822;2022-10-17T11:15:20;4.70;;;0.90;;
8419;SDS011;4247;48.550;8.822;2022-10-17T11:17:54;1.40;;;0.63;;
8419;SDS011;4247;48.550;8.822;2022-10-17T11:20:27;1.17;;;0.70;;
8419;SDS011;4247;48.550;8.822;2022-10-17T11:23:03;0.83;;;0.60;;
8419;SDS011;4247;48.550;8.822;2022-10-17T11:25:43;1.80;;;0.43;;
8419;SDS011;4247;48.550;8.822;2022-10-17T11:28:14;2.73;;;0.70;;
8419;SDS011;4247;48.550;8.822;2022-10-17T11:30:45;0.67;;;0.63;;
8419;SDS011;4247;48.550;8.822;2022-10-17T11:33:16;4.20;;;0.90;;
8419;SDS011;4247;48.550;8.822;2022-10-17T11:35:50;6.67;;;0.70;;
8419;SDS011;4247;48.550;8.822;2022-10-17T11:38:26;1.40;;;0.77;;
8419;SDS011;4247;48.550;8.822;2022-10-17T11:41:02;1.00;;;0.70;;
8419;SDS011;4247;48.550;8.822;2022-10-17T11:43:34;1.97;;;0.63;;
8419;SDS011;4247;48.550;8.822;2022-10-17T11:46:09;2.83;;;0.40;;
8419;SDS011;4247;48.550;8.822;2022-10-17T11:48:41;3.73;;;0.50;;
8419;SDS011;4247;48.550;8.822;2022-10-17T11:51:25;1.07;;;0.30;;
8419;SDS011;4247;48.550;8.822;2022-10-17T11:53:56;2.93;;;0.93;;
8419;SDS011;4247;48.550;8.822;2022-10-17T11:56:32;1.80;;;0.43;;
8419;SDS011;4247;48.550;8.822;2022-10-17T11:59:12;3.77;;;0.70;;
8419;SDS011;4247;48.550;8.822;2022-10-17T12:01:57;4.93;;;0.50;;
8419;SDS011;4247;48.550;8.822;2022-10-17T12:04:33;0.47;;;0.40;;
8419;SDS011;4247;48.550;8.822;2022-10-17T12:07:10;1.97;;;0.40;;
8419;SDS011;4247;48.550;8.822;2022-10-17T12:09:45;1.30;;;0.40;;
8419;SDS011;4247;48.550;8.822;2022-10-17T12:12:22;2.17;;;0.50;;
8419;SDS011;4247;48.550;8.822;2022-10-17T12:14:52;0.70;;;0.30;;
8419;SDS011;4247;48.550;8.822;2022-10-17T12:17:24;3.23;;;0.40;;
8419;SDS011;4247;48.550;8.822;2022-10-17T12:22:49;0.40;;;0.30;;
8419;SDS011;4247;48.550;8.822;2022-10-17T12:25:30;0.30;;;0.30;;
8419;SDS011;4247;48.550;8.822;2022-10-17T12:28:09;1.80;;;0.30;;
8419;SDS011;4247;48.550;8.822;2022-10-17T12:30:47;1.20;;;0.50;;
8419;SDS011;4247;48.550;8.822;2022-10-17T12:33:16;0.40;;;0.40;;
8419;SDS011;4247;48.550;8.822;2022-10-17T12:35:48;3.90;;;0.57;;
8419;SDS011;4247;48.550;8.822;2022-10-17T12:38:23;1.60;;;0.60;;
8419;SDS011;4247;48.550;8.822;2022-10-17T12:41:00;0.87;;;0.83;;
8419;SDS011;4247;48.550;8.822;2022-10-17T12:43:44;2.77;;;0.60;;
8419;SDS011;4247;48.550;8.822;2022-10-17T12:49:20;2.83;;;0.67;;
8419;SDS011;4247;48.550;8.822;2022-10-17T12:52:09;2.60;;;0.40;;
8419;SDS011;4247;48.550;8.822;2022-10-17T12:54:53;3.10;;;0.50;;
8419;SDS011;4247;48.550;8.822;2022-10-17T12:57:26;4.13;;;0.90;;
8419;SDS011;4247;48.550;8.822;2022-10-17T12:59:57;1.90;;;0.60;;
8419;SDS011;4247;48.550;8.822;2022-10-17T13:02:26;1.33;;;0.80;;
8419;SDS011;4247;48.550;8.822;2022-10-17T13:04:56;3.60;;;1.00;;
8419;SDS011;4247;48.550;8.822;2022-10-17T13:07:31;3.50;;;0.40;;
8419;SDS011;4247;48.550;8.822;2022-10-17T13:10:01;3.70;;;0.70;;
8419;SDS011;4247;48.550;8.822;2022-10-17T13:12:32;0.70;;;0.40;;
8419;SDS011;4247;48.550;8.822;2022-10-17T13:15:07;1.90;;;0.77;;
8419;SDS011;4247;48.550;8.822;2022-10-17T13:17:41;2.40;;;0.50;;
8419;SDS011;4247;48.550;8.822;2022-10-17T13:22:52;0.90;;;0.50;;
8419;SDS011;4247;48.550;8.822;2022-10-17T13:25:20;1.63;;;0.47;;
8419;SDS011;4247;48.550;8.822;2022-10-17T13:27:50;1.87;;;0.30;;
8419;SDS011;4247;48.550;8.822;2022-10-17T13:30:29;0.47;;;0.40;;
8419;SDS011;4247;48.550;8.822;2022-10-17T13:32:57;2.23;;;0.70;;
8419;SDS011;4247;48.550;8.822;2022-10-17T13:35:26;2.40;;;0.50;;
8419;SDS011;4247;48.550;8.822;2022-10-17T13:37:55;3.33;;;0.60;;
8419;SDS011;4247;48.550;8.822;2022-10-17T13:40:24;3.23;;;0.60;;
8419;SDS011;4247;48.550;8.822;2022-10-17T13:42:55;1.73;;;0.40;;
8419;SDS011;4247;48.550;8.822;2022-10-17T13:45:28;0.40;;;0.40;;
8419;SDS011;4247;48.550;8.822;2022-10-17T13:47:56;2.73;;;0.80;;
8419;SDS011;4247;48.550;8.822;2022-10-17T13:50:26;0.90;;;0.60;;
8419;SDS011;4247;48.550;8.822;2022-10-17T13:53:11;0.50;;;0.50;;
8419;SDS011;4247;48.550;8.822;2022-10-17T13:55:56;3.83;;;0.43;;
8419;SDS011;4247;48.550;8.822;2022-10-17T13:58:29;1.27;;;0.50;;
8419;SDS011;4247;48.550;8.822;2022-10-17T14:00:59;1.33;;;0.40;;
8419;SDS011;4247;48.550;8.822;2022-10-17T14:03:27;3.23;;;0.47;;
8419;SDS011;4247;48.550;8.822;2022-10-17T14:05:58;3.33;;;0.60;;
8419;SDS011;4247;48.550;8.822;2022-10-17T14:08:37;2.33;;;0.40;;
8419;SDS011;4247;48.550;8.822;2022-10-17T14:11:12;2.50;;;0.50;;
8419;SDS011;4247;48.550;8.822;2022-10-17T14:13:48;3.13;;;0.50;;
8419;SDS011;4247;48.550;8.822;2022-10-17T14:16:16;1.23;;;1.13;;
8419;SDS011;4247;48.550;8.822;2022-10-17T14:18:45;1.90;;;0.70;;
8419;SDS011;4247;48.550;8.822;2022-10-17T15:24:16;0.77;;;0.47;;
8419;SDS011;4247;48.550;8.822;2022-10-17T15:26:43;2.10;;;0.60;;
8419;SDS011;4247;48.550;8.822;2022-10-17T15:29:11;0.83;;;0.50;;
8419;SDS011;4247;48.550;8.822;2022-10-17T15:31:40;1.83;;;0.70;;
8419;SDS011;4247;48.550;8.822;2022-10-17T15:34:07;1.10;;;0.70;;
8419;SDS011;4247;48.550;8.822;2022-10-17T15:36:35;1.30;;;0.97;;
8419;SDS011;4247;48.550;8.822;2022-10-17T15:39:05;1.20;;;0.63;;
8419;SDS011;4247;48.550;8.822;2022-10-17T15:41:34;1.67;;;1.17;;
8419;SDS011;4247;48.550;8.822;2022-10-17T15:44:01;0.80;;;0.80;;
8419;SDS011;4247;48.550;8.822;2022-10-17T15:46:32;1.00;;;0.53;;
8419;SDS011;4247;48.550;8.822;2022-10-17T15:49:00;7.70;;;1.17;;
8419;SDS011;4247;48.550;8.822;2022-10-17T15:51:31;7.03;;;0.70;;
8419;SDS011;4247;48.550;8.822;2022-10-17T15:54:03;8.20;;;0.83;;
8419;SDS011;4247;48.550;8.822;2022-10-17T15:56:31;3.07;;;0.60;;
8419;SDS011;4247;48.550;8.822;2022-10-17T15:59:02;0.70;;;0.70;;
8419;SDS011;4247;48.550;8.822;2022-10-17T16:01:30;5.77;;;0.97;;
8419;SDS011;4247;48.550;8.822;2022-10-17T16:03:58;5.63;;;0.53;;
8419;SDS011;4247;48.550;8.822;2022-10-17T16:06:43;3.67;;;0.93;;
8419;SDS011;4247;48.550;8.822;2022-10-17T16:09:10;0.60;;;0.60;;
8419;SDS011;4247;48.550;8.822;2022-10-17T16:11:38;5.10;;;1.47;;
8419;SDS011;4247;48.550;8.822;2022-10-17T16:14:09;3.13;;;1.00;;
8419;SDS011;4247;48.550;8.822;2022-10-17T16:16:38;0.87;;;0.80;;
8419;SDS011;4247;48.550;8.822;2022-10-17T16:19:20;1.50;;;0.57;;
8419;SDS011;4247;48.550;8.822;2022-10-17T16:21:47;2.00;;;0.70;;
8419;SDS011;4247;48.550;8.822;2022-10-17T16:24:14;1.30;;;0.70;;
8419;SDS011;4247;48.550;8.822;2022-10-17T16:26:41;1.50;;;0.63;;
8419;SDS011;4247;48.550;8.822;2022-10-17T16:29:10;2.03;;;0.70;;
8419;SDS011;4247;48.550;8.822;2022-10-17T16:31:38;1.17;;;0.83;;
8419;SDS011;4247;48.550;8.822;2022-10-17T16:34:07;1.30;;;1.17;;
8419;SDS011;4247;48.550;8.822;2022-10-17T16:36:37;2.87;;;1.87;;
8419;SDS011;4247;48.550;8.822;2022-10-17T16:39:04;2.47;;;1.37;;
8419;SDS011;4247;48.550;8.822;2022-10-17T16:41:47;1.40;;;0.80;;
8419;SDS011;4247;48.550;8.822;2022-10-17T16:44:15;4.00;;;1.43;;
8419;SDS011;4247;48.550;8.822;2022-10-17T16:46:43;4.80;;;1.00;;
8419;SDS011;4247;48.550;8.822;2022-10-17T16:49:10;2.50;;;1.47;;
8419;SDS011;4247;48.550;8.822;2022-10-17T16:51:36;4.00;;;0.90;;
8419;SDS011;4247;48.550;8.822;2022-10-17T16:54:13;1.57;;;0.90;;